Impacts METAR Board
IDs:

KPHX - Phoenix/Sky Harbor, AZ, US

Updated at: 1200 UTC 09 Jul 2020
Potential Impact None Slight Moderate High
Time 09/00Z 09/01Z 09/02Z 09/03Z 09/04Z 09/05Z 09/06Z 09/07Z 09/08Z 09/09Z 09/10Z 09/11Z 09/12Z
Temp109 109 107 106 105 102 101 99 97 97 93 93 92
Dewpt49 47 48 47 47 48 46 47 48 48 49 48 46
Altim29.68 29.68 29.67 29.67 29.70 29.72 29.73 29.73 29.74 29.74 29.74 29.76 29.77
VIS10 10 10 10 10 10 10 10 10 10 10 10 10
CIG-- -- -- -- -- -- -- -- -- -- -- -- --
CoverFEWFEWFEWFEWCLRCLRFEWCLRCLRCLRCLRCLRFEW
FltCatVFRVFRVFRVFRVFRVFRVFRVFRVFRVFRVFRVFRVFR
WX--------------------------
WDir3102902903002802502602602702800350330
WSpd9 12 11 12 9 8 10 10 4 8 3 4 4
WGst22 21 -- -- -- -- -- -- -- -- -- -- --
Raw hourly METARs
KPHX 082351Z 31009G22KT 250V320 10SM FEW120 43/09 A2968 RMK AO2 SLP027 T04280094 10439 20383 56023
KPHX 090051Z 29012G21KT 10SM FEW120 43/08 A2968 RMK AO2 SLP025 T04280083
KPHX 090151Z 29011KT 10SM FEW120 42/09 A2967 RMK AO2 SLP023 T04170089
KPHX 090251Z 30012KT 10SM FEW120 FEW250 41/08 A2967 RMK AO2 SLP025 T04110083 55002
KPHX 090351Z 28009KT 10SM CLR 41/08 A2970 RMK AO2 SLP032 T04060083
KPHX 090451Z 25008KT 10SM CLR 39/09 A2972 RMK AO2 SLP040 T03890089
KPHX 090551Z 26010KT 10SM FEW200 38/08 A2973 RMK AO2 SLP043 T03830078 10439 20378 51018
KPHX 090651Z 26010KT 10SM CLR 37/08 A2973 RMK AO2 SLP044 T03720083 404390322
KPHX 090751Z 27004KT 10SM CLR 36/09 A2974 RMK AO2 SLP046 T03610089
KPHX 090851Z 28008KT 10SM CLR 36/09 A2974 RMK AO2 SLP046 T03610089 50002
KPHX 090951Z VRB03KT 10SM CLR 34/09 A2974 RMK AO2 SLP048 T03390094
KPHX 091051Z 35004KT 10SM CLR 34/09 A2976 RMK AO2 SLP053 T03390089
KPHX 091151Z 33004KT 10SM FEW150 FEW250 33/08 A2977 RMK AO2 SLP056 T03330078 10383 20328 53010



Page loaded:  12:29 UTC  |   05:29 AM Pacific  |   06:29 AM Mountain  |   07:29 AM Central  |   08:29 AM Eastern

 

ADVISORIES

FORECASTS

FORECASTS

OBSERVATIONS

USER TOOLS

ABOUT US